II20 weather

Mossburg Airport
Liberty Center, Indiana, United States

Public forecast

Using degrees Fahrenheit for public forecast. Weather courtesy of forecast.io.

METAR (pilot weather report)

Closest report is Huntington Municipal Airport, 13.9 nm (25.8 km) NW. Retrieved 2019/04/26 09:35 UTC (0 seconds ago):

KHHG 260935Z AUTO 31011G18KT 270V330 10SM -RA SCT012 OVC055 08/07 A2954 RMK AO2 P0001 T00770071

TAF (pilot weather forecast)

Closest forecast is Fort Wayne International Airport, 18.6 nm (34.4 km) N. Retrieved 2019/04/26 06:54 UTC (2 hours ago):

TAF COR KFWA 260551Z 2606/2706 31005KT 3SM SHRA BR OVC004 FM260800 32007KT P6SM OVC035 FM261100 33012G22KT 5SM SHRA BR OVC005 FM261400 33015G25KT P6SM SCT020 BKN035 FM261700 34022G32KT P6SM SCT035 FM270000 31012KT P6SM SCT250